createdAt,value
2017-04-19T00:00:30.620Z,0.43
2017-04-19T00:01:11.045Z,0.43
2017-04-19T00:01:51.531Z,0.32
2017-04-19T00:02:32.074Z,0.43
2017-04-19T00:03:12.628Z,0.31
2017-04-19T00:03:53.089Z,0.4
2017-04-19T00:04:33.592Z,0.4
2017-04-19T00:05:14.034Z,0.41
2017-04-19T00:05:54.541Z,0.41
2017-04-19T00:06:34.999Z,0.49
2017-04-19T00:07:15.487Z,0.37
2017-04-19T00:07:56.010Z,0.47
2017-04-19T00:08:36.483Z,0.44
2017-04-19T00:09:17.013Z,0.37
2017-04-19T00:11:17.109Z,0.39
2017-04-19T00:12:05.575Z,0.37
2017-04-19T00:12:53.529Z,0.41
2017-04-19T00:13:42.341Z,0.4
2017-04-19T00:14:31.225Z,0.32
2017-04-19T00:15:18.050Z,0.36
2017-04-19T00:16:03.537Z,0.36
2017-04-19T00:16:52.200Z,0.34
2017-04-19T00:17:40.768Z,0.28
2017-04-19T00:18:29.093Z,0.23
2017-04-19T00:19:11.570Z,0.26
2017-04-19T00:19:52.046Z,0.21
2017-04-19T00:20:32.482Z,0.26
2017-04-19T00:21:12.982Z,0.23
2017-04-19T00:21:53.492Z,0.18
2017-04-19T00:22:33.982Z,0.23
2017-04-19T00:23:14.406Z,0.22
2017-04-19T00:23:54.946Z,0.26
2017-04-19T00:24:35.463Z,0.25
2017-04-19T00:25:15.921Z,0.23
2017-04-19T00:25:56.374Z,0.25
2017-04-19T00:26:36.859Z,0.18
2017-04-19T00:27:17.331Z,0.21
2017-04-19T00:27:57.846Z,0.1
2017-04-19T00:28:38.319Z,0.21
2017-04-19T00:29:18.798Z,0.19
2017-04-19T00:29:59.283Z,0.21
2017-04-19T00:30:39.719Z,0.21
2017-04-19T00:31:20.229Z,0.25
2017-04-19T00:32:00.677Z,0.15
2017-04-19T00:32:41.186Z,0.16
2017-04-19T00:33:21.628Z,0.22
2017-04-19T00:34:02.189Z,0.25
2017-04-19T00:34:42.643Z,0.19
2017-04-19T00:35:23.156Z,0.21
2017-04-19T00:36:03.623Z,0.1
2017-04-19T00:36:44.063Z,0.05
2017-04-19T00:37:24.607Z,0.23
2017-04-19T00:38:05.008Z,0.11
2017-04-19T00:38:45.500Z,0.12
2017-04-19T00:39:25.947Z,0.11
2017-04-19T00:40:06.458Z,0.1
2017-04-19T00:40:46.872Z,0.12
2017-04-19T00:41:27.393Z,0.11
2017-04-19T00:42:07.894Z,0.05
2017-04-19T00:42:48.310Z,0.12
2017-04-19T00:43:28.810Z,0.1
2017-04-19T00:44:09.285Z,0.11
2017-04-19T00:44:49.788Z,0.07
2017-04-19T00:45:30.206Z,0.07
2017-04-19T00:46:10.716Z,0.03
2017-04-19T00:46:51.139Z,0.1
2017-04-19T00:47:31.634Z,0.12
2017-04-19T00:48:12.145Z,0.03
2017-04-19T00:48:52.611Z,0.07
2017-04-19T00:49:33.085Z,0.1
2017-04-19T00:50:13.549Z,0.08
2017-04-19T00:50:54.113Z,0.05
2017-04-19T00:51:34.579Z,0.1
2017-04-19T00:52:15.109Z,0.05
2017-04-19T00:52:55.548Z,0.15
2017-04-19T00:53:36.041Z,0.04
2017-04-19T00:54:16.509Z,0.11
2017-04-19T00:54:57.022Z,0.04
2017-04-19T00:55:37.543Z,0.1
2017-04-19T00:56:18.037Z,0.03
2017-04-19T00:56:58.479Z,0.03
2017-04-19T00:57:38.979Z,0.07
2017-04-19T00:58:19.455Z,0.07
2017-04-19T00:58:59.956Z,0.1
2017-04-19T00:59:40.425Z,0.03
2017-04-19T01:00:20.878Z,0.08
2017-04-19T01:01:01.346Z,0.04
2017-04-19T01:01:41.809Z,0.04
2017-04-19T01:02:22.290Z,0.01
2017-04-19T01:03:02.774Z,0.01
2017-04-19T01:03:43.228Z,0
2017-04-19T01:04:23.694Z,0.08
2017-04-19T01:05:04.157Z,-0.06
2017-04-19T01:05:44.638Z,-0.06
2017-04-19T01:06:25.115Z,0.07
2017-04-19T01:07:05.601Z,-0.08
2017-04-19T01:07:46.107Z,-0.07
2017-04-19T01:08:26.583Z,0.01
2017-04-19T01:09:07.013Z,-0.11
2017-04-19T01:09:47.467Z,-0.06
2017-04-19T01:10:27.947Z,-0.07
2017-04-19T01:11:08.428Z,-0.11
2017-04-19T01:11:48.856Z,-0.15
2017-04-19T01:12:29.338Z,-0.08
2017-04-19T01:13:09.810Z,-0.08
2017-04-19T01:13:50.286Z,-0.02
2017-04-19T01:14:30.799Z,-0.13
2017-04-19T01:15:11.230Z,-0.06
2017-04-19T01:15:51.704Z,-0.1
2017-04-19T01:16:32.290Z,-0.08
2017-04-19T01:17:12.728Z,-0.11
2017-04-19T01:17:53.195Z,-0.08
2017-04-19T01:18:33.696Z,-0.15
2017-04-19T01:19:14.185Z,-0.17
2017-04-19T01:19:54.674Z,-0.1
2017-04-19T01:20:35.152Z,-0.18
2017-04-19T01:21:15.615Z,-0.02
2017-04-19T01:21:56.125Z,-0.11
2017-04-19T01:22:36.611Z,-0.13
2017-04-19T01:23:17.175Z,-0.11
2017-04-19T01:23:57.819Z,-0.14
2017-04-19T01:24:38.279Z,-0.15
2017-04-19T01:25:18.749Z,-0.13
2017-04-19T01:25:59.209Z,-0.15
2017-04-19T01:26:39.682Z,-0.15
2017-04-19T01:27:20.176Z,-0.13
2017-04-19T01:28:00.687Z,-0.13
2017-04-19T01:28:41.140Z,-0.13
2017-04-19T01:29:21.619Z,-0.13
2017-04-19T01:30:02.170Z,-0.21
2017-04-19T01:30:42.697Z,-0.23
2017-04-19T01:31:23.177Z,-0.23
2017-04-19T01:32:03.628Z,-0.21
2017-04-19T01:32:44.141Z,-0.18
2017-04-19T01:33:24.625Z,-0.2
2017-04-19T01:34:07.075Z,-0.21
2017-04-19T01:34:47.580Z,-0.23
2017-04-19T01:35:28.066Z,-0.2
2017-04-19T01:36:08.588Z,-0.23
2017-04-19T01:36:49.013Z,-0.29
2017-04-19T01:37:29.501Z,-0.28
2017-04-19T01:38:09.963Z,-0.28
2017-04-19T01:38:50.425Z,-0.29
2017-04-19T01:39:30.950Z,-0.26
2017-04-19T01:40:11.447Z,-0.25
2017-04-19T01:40:51.890Z,-0.31
2017-04-19T01:41:32.368Z,-0.17
2017-04-19T01:42:12.867Z,-0.35
2017-04-19T01:42:53.396Z,-0.26
2017-04-19T01:43:33.826Z,-0.28
2017-04-19T01:44:14.339Z,-0.31
2017-04-19T01:44:54.891Z,-0.29
2017-04-19T01:45:35.395Z,-0.21
2017-04-19T01:46:15.857Z,-0.17
2017-04-19T01:46:56.362Z,-0.28
2017-04-19T01:47:36.836Z,-0.21
2017-04-19T01:48:17.331Z,-0.29
2017-04-19T01:48:57.790Z,-0.25
2017-04-19T01:49:38.279Z,-0.2
2017-04-19T01:50:18.758Z,-0.21
2017-04-19T01:50:59.215Z,-0.28
2017-04-19T01:51:39.715Z,-0.38
2017-04-19T01:52:20.195Z,-0.28
2017-04-19T01:53:00.648Z,-0.25
2017-04-19T01:53:41.186Z,-0.21
2017-04-19T01:54:21.633Z,-0.29
2017-04-19T01:55:02.188Z,-0.36
2017-04-19T01:55:42.609Z,-0.31
2017-04-19T01:56:23.147Z,-0.26
2017-04-19T01:57:03.624Z,-0.31
2017-04-19T01:57:44.079Z,-0.31
2017-04-19T01:58:24.528Z,-0.32
2017-04-19T01:59:04.984Z,-0.34
2017-04-19T01:59:45.467Z,-0.34
2017-04-19T02:00:25.965Z,-0.32
2017-04-19T02:01:06.433Z,-0.34
2017-04-19T02:01:46.894Z,-0.32
2017-04-19T02:02:27.391Z,-0.41
2017-04-19T02:03:07.812Z,-0.34
2017-04-19T02:03:48.319Z,-0.35
2017-04-19T02:04:28.795Z,-0.47
2017-04-19T02:05:09.257Z,-0.36
2017-04-19T02:05:49.711Z,-0.36
2017-04-19T02:06:30.197Z,-0.36
2017-04-19T02:07:10.662Z,-0.43
2017-04-19T02:07:51.175Z,-0.44
2017-04-19T02:08:31.668Z,-0.39
2017-04-19T02:09:12.130Z,-0.35
2017-04-19T02:09:52.658Z,-0.43
2017-04-19T02:10:33.088Z,-0.43
2017-04-19T02:11:13.604Z,-0.41
2017-04-19T02:11:54.094Z,-0.39
2017-04-19T02:12:34.575Z,-0.34
2017-04-19T02:13:15.047Z,-0.41
2017-04-19T02:13:55.560Z,-0.41
2017-04-19T02:14:36.019Z,-0.38
2017-04-19T02:15:16.508Z,-0.43
2017-04-19T02:15:57.055Z,-0.39
2017-04-19T02:16:37.454Z,-0.36
2017-04-19T02:17:17.998Z,-0.43
2017-04-19T02:17:58.444Z,-0.46
2017-04-19T02:18:38.934Z,-0.44
2017-04-19T02:19:19.373Z,-0.46
2017-04-19T02:19:59.887Z,-0.41
2017-04-19T02:20:40.355Z,-0.43
2017-04-19T02:21:20.811Z,-0.39
2017-04-19T02:22:01.317Z,-0.44
2017-04-19T02:22:41.754Z,-0.46
2017-04-19T02:23:22.263Z,-0.5
2017-04-19T02:24:02.737Z,-0.47
2017-04-19T02:24:43.182Z,-0.53
2017-04-19T02:25:23.705Z,-0.47
2017-04-19T02:26:04.169Z,-0.41
2017-04-19T02:26:44.628Z,-0.5
2017-04-19T02:27:25.139Z,-0.46
2017-04-19T02:28:05.589Z,-0.5
2017-04-19T02:28:46.063Z,-0.43
2017-04-19T02:29:26.545Z,-0.49
2017-04-19T02:30:07.067Z,-0.44
2017-04-19T02:30:47.509Z,-0.5
2017-04-19T02:31:28.016Z,-0.5
2017-04-19T02:32:08.512Z,-0.5
2017-04-19T02:32:48.950Z,-0.44
2017-04-19T02:33:29.415Z,-0.44
2017-04-19T02:34:09.882Z,-0.41
2017-04-19T02:34:50.376Z,-0.46
2017-04-19T02:35:30.865Z,-0.41
2017-04-19T02:36:11.327Z,-0.44
2017-04-19T02:36:51.856Z,-0.5
2017-04-19T02:37:32.402Z,-0.5
2017-04-19T02:38:12.847Z,-0.49
2017-04-19T02:38:53.354Z,-0.44
2017-04-19T02:39:35.572Z,-0.41
2017-04-19T02:40:16.062Z,-0.44
2017-04-19T02:40:56.552Z,-0.54
2017-04-19T02:41:37.021Z,-0.54
2017-04-19T02:42:17.508Z,-0.44
2017-04-19T02:42:57.992Z,-0.56
2017-04-19T02:43:38.518Z,-0.5
2017-04-19T02:44:19.001Z,-0.44
2017-04-19T02:44:59.485Z,-0.56
2017-04-19T02:45:39.994Z,-0.53
2017-04-19T02:46:20.433Z,-0.54
2017-04-19T02:47:00.952Z,-0.57
2017-04-19T02:47:41.389Z,-0.56
2017-04-19T02:48:21.925Z,-0.53
2017-04-19T02:49:02.364Z,-0.59
2017-04-19T02:49:42.900Z,-0.53
2017-04-19T02:50:23.547Z,-0.54
2017-04-19T02:51:04.066Z,-0.61
2017-04-19T02:51:44.488Z,-0.59
2017-04-19T02:52:24.975Z,-0.54
2017-04-19T02:53:05.485Z,-0.53
2017-04-19T02:53:47.597Z,-0.57
2017-04-19T02:54:28.068Z,-0.54
2017-04-19T02:55:08.543Z,-0.61
2017-04-19T02:55:49.028Z,-0.56
2017-04-19T02:56:29.482Z,-0.57
2017-04-19T02:57:09.985Z,-0.53
2017-04-19T02:57:50.480Z,-0.54
2017-04-19T02:58:30.971Z,-0.61
2017-04-19T02:59:11.521Z,-0.61
2017-04-19T02:59:52.548Z,-0.62
2017-04-19T03:00:33.033Z,-0.67
2017-04-19T03:01:13.495Z,-0.64
2017-04-19T03:01:53.945Z,-0.65
2017-04-19T03:02:34.382Z,-0.62
2017-04-19T03:03:14.890Z,-0.67
2017-04-19T03:03:55.367Z,-0.61
2017-04-19T03:04:35.854Z,-0.62
2017-04-19T03:05:18.073Z,-0.64
2017-04-19T03:05:58.546Z,-0.57
2017-04-19T03:06:39.081Z,-0.71
2017-04-19T03:07:19.531Z,-0.61
2017-04-19T03:08:00.064Z,-0.62
2017-04-19T03:08:40.516Z,-0.65
2017-04-19T03:09:20.997Z,-0.67
2017-04-19T03:10:01.462Z,-0.74
2017-04-19T03:10:41.971Z,-0.65
2017-04-19T03:11:26.983Z,-0.74
2017-04-19T03:12:07.476Z,-0.7
2017-04-19T03:12:48.806Z,-0.67
2017-04-19T03:13:29.342Z,-0.8
2017-04-19T03:14:09.806Z,-0.78
2017-04-19T03:14:50.289Z,-0.82
2017-04-19T03:15:30.744Z,-0.8
2017-04-19T03:16:11.256Z,-0.75
2017-04-19T03:18:27.215Z,-0.75
2017-04-19T03:19:16.601Z,-0.75
2017-04-19T03:20:05.209Z,-0.72
2017-04-19T03:20:53.742Z,-0.74
2017-04-19T03:21:42.485Z,-0.78
2017-04-19T03:22:31.119Z,-0.82
2017-04-19T03:23:19.455Z,-0.72
2017-04-19T03:24:08.470Z,-0.8
2017-04-19T03:24:56.631Z,-0.67
2017-04-19T03:25:45.304Z,-0.83
2017-04-19T03:26:33.578Z,-0.86
2017-04-19T03:27:22.657Z,-0.82
2017-04-19T03:29:26.413Z,-0.75
2017-04-19T03:30:14.499Z,-0.82
2017-04-19T03:31:02.765Z,-0.75
2017-04-19T03:31:51.451Z,-0.71
2017-04-19T03:32:39.598Z,-0.72
2017-04-19T03:33:28.120Z,-0.74
2017-04-19T03:34:16.909Z,-0.75
2017-04-19T03:35:04.158Z,-0.67
2017-04-19T03:35:52.420Z,-0.71
2017-04-19T03:36:41.058Z,-0.85
2017-04-19T03:37:29.406Z,-0.83
2017-04-19T03:38:17.891Z,-0.83
2017-04-19T03:39:01.721Z,-0.74
2017-04-19T03:39:42.212Z,-0.83
2017-04-19T03:40:22.701Z,-0.82
2017-04-19T03:41:03.220Z,-0.85
2017-04-19T03:41:43.660Z,-0.86
2017-04-19T03:42:24.154Z,-0.83
2017-04-19T03:43:04.610Z,-0.74
2017-04-19T03:43:45.109Z,-0.75
2017-04-19T03:44:25.560Z,-0.83
2017-04-19T03:45:06.035Z,-0.78
2017-04-19T03:45:46.481Z,-0.82
2017-04-19T03:46:26.967Z,-0.83
2017-04-19T03:47:07.544Z,-0.9
2017-04-19T03:47:48.011Z,-0.85
2017-04-19T03:48:28.438Z,-0.89
2017-04-19T03:49:08.974Z,-0.83
2017-04-19T03:49:49.404Z,-0.9
2017-04-19T03:50:29.900Z,-0.83
2017-04-19T03:51:10.337Z,-0.93
2017-04-19T03:51:50.807Z,-0.83
2017-04-19T03:52:31.381Z,-0.94
2017-04-19T03:53:11.804Z,-0.96
2017-04-19T03:53:52.250Z,-0.9
2017-04-19T03:54:32.741Z,-0.96
2017-04-19T03:55:13.230Z,-0.93
2017-04-19T03:55:53.751Z,-0.89
2017-04-19T03:56:34.189Z,-0.94
2017-04-19T03:57:14.670Z,-0.9
2017-04-19T03:57:55.183Z,-0.9
2017-04-19T03:58:35.601Z,-0.96
2017-04-19T03:59:16.101Z,-0.86
2017-04-19T03:59:56.615Z,-0.94
2017-04-19T04:00:37.060Z,-0.99
2017-04-19T04:01:17.568Z,-0.96
2017-04-19T04:01:58.071Z,-0.9
2017-04-19T04:02:38.502Z,-0.9
2017-04-19T04:03:18.962Z,-0.96
2017-04-19T04:03:59.428Z,-0.89
2017-04-19T04:04:39.945Z,-0.89
2017-04-19T04:05:20.392Z,-0.9
2017-04-19T04:06:00.848Z,-0.94
2017-04-19T04:06:41.284Z,-0.96
2017-04-19T04:07:21.757Z,-0.89
2017-04-19T04:08:02.210Z,-0.94
2017-04-19T04:08:42.698Z,-0.9
2017-04-19T04:09:23.174Z,-0.86
2017-04-19T04:10:03.629Z,-0.85
2017-04-19T04:10:44.143Z,-0.94
2017-04-19T04:11:24.599Z,-0.94
2017-04-19T04:12:05.070Z,-0.82
2017-04-19T04:12:45.531Z,-0.83
2017-04-19T04:13:25.996Z,-0.8
2017-04-19T04:14:06.438Z,-0.86
2017-04-19T04:14:46.993Z,-0.85
2017-04-19T04:15:27.469Z,-0.85
2017-04-19T04:16:07.921Z,-0.93
2017-04-19T04:16:48.408Z,-0.89
2017-04-19T04:17:28.895Z,-0.85
2017-04-19T04:18:09.369Z,-0.86
2017-04-19T04:18:49.829Z,-0.8
2017-04-19T04:19:30.295Z,-0.86
2017-04-19T04:20:10.792Z,-0.91
2017-04-19T04:20:51.240Z,-0.77
2017-04-19T04:21:31.763Z,-0.89
2017-04-19T04:22:12.228Z,-0.82
2017-04-19T04:22:52.647Z,-0.77
2017-04-19T04:23:33.153Z,-0.85
2017-04-19T04:24:13.578Z,-0.8
2017-04-19T04:24:54.050Z,-0.7
2017-04-19T04:25:34.541Z,-0.82
2017-04-19T04:26:14.997Z,-0.71
2017-04-19T04:26:55.539Z,-0.71
2017-04-19T04:27:35.981Z,-0.72
2017-04-19T04:28:16.477Z,-0.71
2017-04-19T04:28:56.919Z,-0.75
2017-04-19T04:29:37.381Z,-0.75
2017-04-19T04:30:17.870Z,-0.77
2017-04-19T04:30:58.321Z,-0.71
2017-04-19T04:31:38.830Z,-0.7
2017-04-19T04:32:19.279Z,-0.75
2017-04-19T04:32:59.723Z,-0.64
2017-04-19T04:33:40.251Z,-0.68
2017-04-19T04:34:20.715Z,-0.68
2017-04-19T04:35:01.239Z,-0.7
2017-04-19T04:35:41.668Z,-0.68
2017-04-19T04:36:22.129Z,-0.64
2017-04-19T04:37:02.603Z,-0.65
2017-04-19T04:37:43.083Z,-0.67
2017-04-19T04:38:23.673Z,-0.62
2017-04-19T04:39:04.203Z,-0.62
2017-04-19T04:39:44.630Z,-0.54
2017-04-19T04:40:25.114Z,-0.57
2017-04-19T04:41:05.631Z,-0.61
2017-04-19T04:41:46.046Z,-0.62
2017-04-19T04:42:26.512Z,-0.5
2017-04-19T04:43:06.991Z,-0.56
2017-04-19T04:43:47.509Z,-0.59
2017-04-19T04:44:28.007Z,-0.52
2017-04-19T04:45:08.469Z,-0.59
2017-04-19T04:45:48.942Z,-0.41
2017-04-19T04:46:29.386Z,-0.43
2017-04-19T04:47:09.823Z,-0.47
2017-04-19T04:47:50.338Z,-0.43
2017-04-19T04:48:30.851Z,-0.43
2017-04-19T04:49:11.345Z,-0.49
2017-04-19T04:49:51.841Z,-0.46
2017-04-19T04:50:32.359Z,-0.46
2017-04-19T04:51:12.814Z,-0.38
2017-04-19T04:51:53.266Z,-0.43
2017-04-19T04:52:33.936Z,-0.44
2017-04-19T04:53:14.402Z,-0.49
2017-04-19T04:53:54.839Z,-0.43
2017-04-19T04:54:35.335Z,-0.36
2017-04-19T04:55:17.317Z,-0.31
2017-04-19T04:55:57.817Z,-0.32
2017-04-19T04:56:38.267Z,-0.32
2017-04-19T04:57:18.725Z,-0.29
2017-04-19T04:57:59.169Z,-0.32
2017-04-19T04:58:39.658Z,-0.31
2017-04-19T04:59:20.116Z,-0.28
2017-04-19T05:00:00.601Z,-0.21
2017-04-19T05:00:41.028Z,-0.32
2017-04-19T05:01:21.512Z,-0.23
2017-04-19T05:02:02.005Z,-0.28
2017-04-19T05:02:42.448Z,-0.32
2017-04-19T05:03:22.940Z,-0.31
2017-04-19T05:04:03.415Z,-0.29
2017-04-19T05:04:44.034Z,-0.25
2017-04-19T05:05:24.508Z,-0.17
2017-04-19T05:06:05.022Z,-0.13
2017-04-19T05:06:45.502Z,-0.11
2017-04-19T05:07:25.932Z,-0.18
2017-04-19T05:08:06.457Z,-0.14
2017-04-19T05:08:46.918Z,-0.14
2017-04-19T05:11:02.689Z,-0.1
2017-04-19T05:11:50.646Z,-0.07
2017-04-19T05:12:39.458Z,0
2017-04-19T05:13:27.988Z,-0.06
2017-04-19T05:14:16.259Z,0.01
2017-04-19T05:15:01.048Z,0.04
2017-04-19T05:15:48.217Z,0.07
2017-04-19T05:16:36.491Z,-0.02
2017-04-19T05:17:22.854Z,0.11
2017-04-19T05:18:03.228Z,0.1
2017-04-19T05:18:43.733Z,0.07
2017-04-19T05:19:24.199Z,0.05
2017-04-19T05:20:04.638Z,0.1
2017-04-19T05:20:45.107Z,0.19
2017-04-19T05:21:25.636Z,0.21
2017-04-19T05:23:15.813Z,0.26
2017-04-19T05:24:03.568Z,0.23
2017-04-19T05:26:01.450Z,0.25
2017-04-19T05:26:49.807Z,0.37
2017-04-19T05:27:38.317Z,0.39
2017-04-19T05:28:27.109Z,0.43
2017-04-19T05:29:10.963Z,0.46
2017-04-19T05:30:00.038Z,0.44
2017-04-19T05:30:47.902Z,0.4
2017-04-19T05:32:45.911Z,0.5
2017-04-19T05:33:34.598Z,0.52
2017-04-19T05:34:20.712Z,0.5
2017-04-19T05:35:09.660Z,0.58
2017-04-19T05:35:58.204Z,0.6
2017-04-19T05:36:38.114Z,0.65
2017-04-19T05:37:18.551Z,0.66
2017-04-19T05:37:59.034Z,0.68
2017-04-19T05:38:39.547Z,0.63
2017-04-19T05:39:20.002Z,0.73
2017-04-19T05:40:00.531Z,0.73
2017-04-19T05:40:40.985Z,0.7
2017-04-19T05:41:21.444Z,0.78
2017-04-19T05:42:01.941Z,0.74
2017-04-19T05:42:42.421Z,0.77
2017-04-19T05:43:22.896Z,0.86
2017-04-19T05:44:03.432Z,0.91
2017-04-19T05:44:44.034Z,0.98
2017-04-19T05:45:24.506Z,1.01
2017-04-19T05:46:04.974Z,1.01
2017-04-19T05:46:45.407Z,0.98
2017-04-19T05:47:25.838Z,1.04
2017-04-19T05:48:06.340Z,1.12
2017-04-19T05:48:46.867Z,1.12
2017-04-19T05:49:27.323Z,1.05
2017-04-19T05:50:07.766Z,1.12
2017-04-19T05:50:48.223Z,1.12
2017-04-19T05:51:28.753Z,1.14
2017-04-19T05:52:09.199Z,1.17
2017-04-19T05:52:49.677Z,1.19
2017-04-19T05:53:30.114Z,1.24
2017-04-19T05:54:10.649Z,1.22
2017-04-19T05:54:51.278Z,1.31
2017-04-19T05:55:31.754Z,1.37
2017-04-19T05:56:12.327Z,1.38
2017-04-19T05:56:52.888Z,1.37
2017-04-19T05:57:33.363Z,1.4
2017-04-19T05:58:14.036Z,1.44
2017-04-19T05:58:54.511Z,1.41
2017-04-19T05:59:35.006Z,1.44
2017-04-19T06:00:15.457Z,1.48
2017-04-19T06:00:56.478Z,1.42
2017-04-19T06:01:36.955Z,1.58
2017-04-19T06:02:17.551Z,1.59
2017-04-19T06:02:58.267Z,1.59
2017-04-19T06:03:38.768Z,1.68
2017-04-19T06:04:19.202Z,1.6
2017-04-19T06:04:59.665Z,1.63
2017-04-19T06:05:40.164Z,1.6
2017-04-19T06:06:20.636Z,1.59
2017-04-19T06:07:01.095Z,1.71
2017-04-19T06:07:41.611Z,1.7
2017-04-19T06:08:22.947Z,1.71
2017-04-19T06:09:03.411Z,1.78
2017-04-19T06:09:43.873Z,1.77
2017-04-19T06:10:24.355Z,1.71
2017-04-19T06:11:04.808Z,1.77
2017-04-19T06:11:45.283Z,1.73
2017-04-19T06:12:25.780Z,1.76
2017-04-19T06:13:06.243Z,1.74
2017-04-19T06:13:46.750Z,1.88
2017-04-19T06:14:27.187Z,1.95
2017-04-19T06:15:07.729Z,1.88
2017-04-19T06:15:48.254Z,1.95
2017-04-19T06:16:28.905Z,1.95
2017-04-19T06:17:09.387Z,2
2017-04-19T06:17:49.860Z,2
2017-04-19T06:18:30.305Z,2.04
2017-04-19T06:19:10.900Z,2.08
2017-04-19T06:19:51.370Z,2.1
2017-04-19T06:20:31.822Z,2.11
2017-04-19T06:21:12.287Z,2.14
2017-04-19T06:21:52.769Z,2.14
2017-04-19T06:22:33.238Z,2.24
2017-04-19T06:23:13.699Z,2.22
2017-04-19T06:23:54.178Z,2.28
2017-04-19T06:24:34.656Z,2.31
2017-04-19T06:25:15.131Z,2.32
2017-04-19T06:25:55.758Z,2.35
2017-04-19T06:26:36.198Z,2.2
2017-04-19T06:27:16.689Z,2.36
2017-04-19T06:27:57.143Z,2.44
2017-04-19T06:28:37.718Z,2.35
2017-04-19T06:29:18.155Z,2.43
2017-04-19T06:29:58.603Z,2.44
2017-04-19T06:30:39.098Z,2.38
2017-04-19T06:31:19.594Z,2.5
2017-04-19T06:32:00.106Z,2.53
2017-04-19T06:32:40.584Z,2.47
2017-04-19T06:33:21.031Z,2.53
2017-04-19T06:34:01.506Z,2.67
2017-04-19T06:34:41.981Z,2.64
2017-04-19T06:35:22.448Z,2.64
2017-04-19T06:36:02.991Z,2.71
2017-04-19T06:36:43.410Z,2.71
2017-04-19T06:37:23.881Z,2.68
2017-04-19T06:38:04.363Z,2.68
2017-04-19T06:38:44.824Z,2.67
2017-04-19T06:39:25.269Z,2.65
2017-04-19T06:40:05.755Z,2.79
2017-04-19T06:40:46.218Z,2.79
2017-04-19T06:41:26.690Z,2.75
2017-04-19T06:42:07.241Z,2.74
2017-04-19T06:42:47.683Z,2.79
2017-04-19T06:43:28.210Z,2.86
2017-04-19T06:44:08.726Z,2.86
2017-04-19T06:44:49.277Z,2.93
2017-04-19T06:45:29.744Z,2.85
2017-04-19T06:46:10.189Z,2.87
2017-04-19T06:46:50.678Z,2.86
2017-04-19T06:47:31.211Z,2.87
2017-04-19T06:48:11.661Z,2.95
2017-04-19T06:48:52.145Z,2.9
2017-04-19T06:49:32.731Z,2.93
2017-04-19T06:50:13.189Z,2.97
2017-04-19T06:50:53.694Z,2.98
2017-04-19T06:51:34.164Z,3.08
2017-04-19T06:52:14.650Z,3.05
2017-04-19T06:52:55.117Z,3.14
2017-04-19T06:53:35.601Z,3.1
2017-04-19T06:54:16.111Z,3.05
2017-04-19T06:54:56.577Z,3.11
2017-04-19T06:55:37.064Z,3.14
2017-04-19T06:56:17.629Z,3.18
2017-04-19T06:56:58.182Z,3.19
2017-04-19T06:57:38.691Z,3.28
2017-04-19T06:58:19.217Z,3.13
2017-04-19T06:58:59.703Z,3.18
2017-04-19T06:59:40.158Z,3.25
2017-04-19T07:00:20.665Z,3.26
2017-04-19T07:01:13.595Z,3.37
2017-04-19T07:02:04.610Z,3.34
2017-04-19T07:02:45.946Z,3.31
2017-04-19T07:03:26.472Z,3.36
2017-04-19T07:04:06.998Z,3.4
2017-04-19T07:04:47.446Z,3.42
2017-04-19T07:05:27.929Z,3.32
2017-04-19T07:06:08.481Z,3.45
2017-04-19T07:06:48.964Z,3.41
2017-04-19T07:07:29.435Z,3.48
2017-04-19T07:08:10.069Z,3.55
2017-04-19T07:08:50.475Z,3.51
2017-04-19T07:09:30.930Z,3.5
2017-04-19T07:10:11.453Z,3.5
2017-04-19T07:10:51.858Z,3.58
2017-04-19T07:11:32.332Z,3.56
2017-04-19T07:12:12.879Z,3.56
2017-04-19T07:12:53.409Z,3.55
2017-04-19T07:13:33.906Z,3.62
2017-04-19T07:14:14.386Z,3.63
2017-04-19T07:14:54.857Z,3.7
2017-04-19T07:15:35.396Z,3.77
2017-04-19T07:16:16.309Z,3.7
2017-04-19T07:16:56.777Z,3.74
2017-04-19T07:17:37.912Z,3.78
2017-04-19T07:18:18.383Z,3.81
2017-04-19T07:18:58.911Z,3.84
2017-04-19T07:19:39.420Z,3.86
2017-04-19T07:20:19.856Z,3.91
2017-04-19T07:21:00.433Z,3.92
2017-04-19T07:21:40.876Z,3.94
2017-04-19T07:22:21.460Z,3.96
2017-04-19T07:23:01.961Z,3.98
2017-04-19T07:23:44.014Z,3.92
2017-04-19T07:24:24.507Z,4.02
2017-04-19T07:25:04.973Z,3.96
2017-04-19T07:25:45.450Z,4.05
2017-04-19T07:26:26.008Z,4.13
2017-04-19T07:27:06.469Z,4.12
2017-04-19T07:27:46.934Z,4.2
2017-04-19T07:28:27.435Z,4.08
2017-04-19T07:29:07.867Z,4.22
2017-04-19T07:29:48.401Z,4.16
2017-04-19T07:30:28.981Z,4.13
2017-04-19T07:31:09.500Z,4.14
2017-04-19T07:31:51.119Z,4.22
2017-04-19T07:32:31.596Z,4.17
2017-04-19T07:33:12.130Z,4.14
2017-04-19T07:33:53.077Z,4.13
2017-04-19T07:34:33.891Z,4.26
2017-04-19T07:35:14.582Z,4.2
2017-04-19T07:35:55.322Z,4.26
2017-04-19T07:36:36.039Z,4.24
2017-04-19T07:37:16.823Z,4.23
2017-04-19T07:37:58.046Z,4.22
2017-04-19T07:38:38.532Z,4.24
2017-04-19T07:39:19.007Z,4.26
2017-04-19T07:39:59.522Z,4.3
2017-04-19T07:40:40.347Z,4.35
2017-04-19T07:41:22.537Z,4.37
2017-04-19T07:42:03.062Z,4.35
2017-04-19T07:42:43.528Z,4.42
2017-04-19T07:43:24.163Z,4.45
2017-04-19T07:44:04.623Z,4.49
2017-04-19T07:44:45.198Z,4.5
2017-04-19T07:45:25.642Z,4.49
2017-04-19T07:46:06.089Z,4.53
2017-04-19T07:46:46.597Z,4.56
2017-04-19T07:47:27.079Z,4.59
2017-04-19T07:48:07.665Z,4.56
2017-04-19T07:48:48.094Z,4.67
2017-04-19T07:49:28.560Z,4.6
2017-04-19T07:50:09.074Z,4.7
2017-04-19T07:50:49.521Z,4.77
2017-04-19T07:51:30.027Z,4.78
2017-04-19T07:52:10.550Z,4.8
2017-04-19T07:52:50.998Z,4.87
2017-04-19T07:53:31.493Z,4.87
2017-04-19T07:54:11.979Z,4.86
2017-04-19T07:54:52.451Z,4.93
2017-04-19T07:55:32.953Z,4.99
2017-04-19T07:56:13.430Z,4.9
2017-04-19T07:56:53.888Z,4.96
2017-04-19T07:57:34.393Z,4.99
2017-04-19T07:58:15.610Z,4.99
2017-04-19T07:58:56.103Z,4.97
2017-04-19T07:59:36.526Z,5.02
2017-04-19T08:00:17.022Z,5.05
2017-04-19T08:00:57.511Z,5.1
2017-04-19T08:01:38.046Z,5.02
2017-04-19T08:02:18.490Z,5.04
2017-04-19T08:02:58.963Z,5.07
2017-04-19T08:03:39.446Z,5.15
2017-04-19T08:04:19.959Z,5.23
2017-04-19T08:05:00.404Z,5.3
2017-04-19T08:05:41.107Z,5.26
2017-04-19T08:06:22.303Z,5.3
2017-04-19T08:07:02.787Z,5.28
2017-04-19T08:07:44.078Z,5.32
2017-04-19T08:08:24.369Z,5.41
2017-04-19T08:09:04.829Z,5.41
2017-04-19T08:09:45.276Z,5.46
2017-04-19T08:10:25.767Z,5.48
2017-04-19T08:11:06.395Z,5.44
2017-04-19T08:11:46.816Z,5.43
2017-04-19T08:12:27.301Z,5.41
2017-04-19T08:13:07.810Z,5.43
2017-04-19T08:13:48.298Z,5.57
2017-04-19T08:14:28.787Z,5.56
2017-04-19T08:15:09.279Z,5.56
2017-04-19T08:17:23.700Z,5.54
2017-04-19T08:18:04.954Z,5.62
2017-04-19T08:18:45.347Z,5.54
2017-04-19T08:19:25.860Z,5.64
2017-04-19T08:20:06.333Z,5.56
2017-04-19T08:20:46.793Z,5.68
2017-04-19T08:21:27.291Z,5.61
2017-04-19T08:22:07.738Z,5.64
2017-04-19T08:22:48.215Z,5.62
2017-04-19T08:23:28.728Z,5.61
2017-04-19T08:24:09.211Z,5.59
2017-04-19T08:24:49.725Z,5.65
2017-04-19T08:25:30.202Z,5.69
2017-04-19T08:26:10.693Z,5.76
2017-04-19T08:26:51.205Z,5.71
2017-04-19T08:27:31.708Z,5.8
2017-04-19T08:28:12.405Z,5.84
2017-04-19T08:28:54.024Z,5.82
2017-04-19T08:29:34.615Z,5.83
2017-04-19T08:30:15.125Z,5.84
2017-04-19T08:31:00.284Z,5.87
2017-04-19T08:31:41.266Z,5.94
2017-04-19T08:32:21.788Z,5.98
2017-04-19T08:33:02.242Z,5.93
2017-04-19T08:33:42.699Z,6.01
2017-04-19T08:34:23.195Z,5.97
2017-04-19T08:35:03.662Z,5.98
2017-04-19T08:35:44.175Z,6.01
2017-04-19T08:36:24.632Z,6.02
2017-04-19T08:37:05.130Z,6.05
2017-04-19T08:37:45.632Z,6.09
2017-04-19T08:38:26.095Z,6.11
2017-04-19T08:39:06.580Z,6.22
2017-04-19T08:39:47.080Z,6.26
2017-04-19T08:40:27.556Z,6.22
2017-04-19T08:41:08.014Z,6.24
2017-04-19T08:41:48.522Z,6.28
2017-04-19T08:42:29.071Z,6.35
2017-04-19T08:43:09.572Z,6.26
2017-04-19T08:43:50.944Z,6.3
2017-04-19T08:44:31.450Z,6.31
2017-04-19T08:45:11.928Z,6.31
2017-04-19T08:45:52.392Z,6.44
2017-04-19T08:46:32.890Z,6.44
2017-04-19T08:47:13.389Z,6.45
2017-04-19T08:47:53.865Z,6.52
2017-04-19T08:48:34.333Z,6.52
2017-04-19T08:49:14.841Z,6.54
2017-04-19T08:49:55.320Z,6.56
2017-04-19T08:50:35.850Z,6.63
2017-04-19T08:51:16.337Z,6.67
2017-04-19T08:51:57.049Z,6.66
2017-04-19T08:52:37.817Z,6.6
2017-04-19T08:53:18.450Z,6.66
2017-04-19T08:53:58.888Z,6.62
2017-04-19T08:54:39.484Z,6.66
2017-04-19T08:55:19.888Z,6.67
2017-04-19T08:56:00.377Z,6.75
2017-04-19T08:56:40.932Z,6.75
2017-04-19T08:57:21.398Z,6.74
2017-04-19T08:58:01.934Z,6.77
2017-04-19T08:58:42.351Z,6.78
2017-04-19T08:59:22.809Z,6.79
2017-04-19T09:00:03.296Z,6.78
2017-04-19T09:00:43.851Z,6.84
2017-04-19T09:01:24.299Z,6.82
2017-04-19T09:02:04.809Z,6.92
2017-04-19T09:02:45.281Z,6.95
2017-04-19T09:03:26.428Z,7.02
2017-04-19T09:04:06.910Z,6.99
2017-04-19T09:04:47.424Z,7
2017-04-19T09:05:27.895Z,6.99
2017-04-19T09:06:09.117Z,7.13
2017-04-19T09:06:49.748Z,7.17
2017-04-19T09:07:30.271Z,7.1
2017-04-19T09:08:10.799Z,7.25
2017-04-19T09:08:51.412Z,7.25
2017-04-19T09:09:31.907Z,7.29
2017-04-19T09:10:12.370Z,7.42
2017-04-19T09:10:52.856Z,7.48
2017-04-19T09:11:33.363Z,7.45